createdAt,value
2022-11-20T00:01:46.346Z,11.33
2022-11-20T00:04:31.786Z,5.77
2022-11-20T00:07:17.500Z,6.23
2022-11-20T00:10:03.127Z,5.33
2022-11-20T00:12:48.389Z,5.00
2022-11-20T00:15:34.574Z,6.33
2022-11-20T00:18:19.736Z,5.80
2022-11-20T00:21:13.451Z,4.70
2022-11-20T00:23:59.202Z,4.73
2022-11-20T00:26:45.181Z,5.27
2022-11-20T00:29:30.668Z,4.43
2022-11-20T00:32:16.290Z,4.93
2022-11-20T00:35:01.886Z,6.67
2022-11-20T00:37:47.350Z,5.77
2022-11-20T00:40:32.972Z,5.27
2022-11-20T00:43:18.122Z,6.00
2022-11-20T00:46:09.880Z,4.03
2022-11-20T00:48:55.400Z,6.10
2022-11-20T00:51:40.922Z,6.90
2022-11-20T00:54:26.518Z,5.50
2022-11-20T00:57:12.184Z,4.87
2022-11-20T00:59:57.578Z,5.83
2022-11-20T01:02:43.001Z,4.20
2022-11-20T01:05:28.546Z,5.83
2022-11-20T01:08:14.167Z,6.13
2022-11-20T01:11:04.256Z,4.40
2022-11-20T01:13:51.593Z,4.87
2022-11-20T01:16:46.641Z,4.50
2022-11-20T01:19:32.042Z,5.93
2022-11-20T01:22:17.730Z,5.10
2022-11-20T01:25:03.125Z,4.60
2022-11-20T01:27:48.388Z,7.27
2022-11-20T01:30:33.884Z,4.83
2022-11-20T01:33:19.431Z,4.03
2022-11-20T01:36:06.907Z,4.07
2022-11-20T01:38:54.225Z,4.37
2022-11-20T01:41:59.139Z,4.03
2022-11-20T01:45:00.258Z,5.35
2022-11-20T01:47:47.352Z,3.30
2022-11-20T01:50:34.770Z,6.27
2022-11-20T01:53:24.912Z,5.53
2022-11-20T01:56:13.012Z,10.23
2022-11-20T01:59:02.847Z,7.87
2022-11-20T02:01:48.320Z,8.53
2022-11-20T02:04:33.578Z,3.93
2022-11-20T02:07:19.948Z,7.60
2022-11-20T02:10:05.681Z,6.03
2022-11-20T02:13:09.450Z,3.30
2022-11-20T02:15:55.066Z,4.47
2022-11-20T02:18:41.372Z,4.07
2022-11-20T02:21:44.449Z,4.63
2022-11-20T02:24:29.856Z,4.70
2022-11-20T02:27:17.043Z,3.10
2022-11-20T02:30:08.636Z,5.10
2022-11-20T02:32:53.830Z,3.50
2022-11-20T02:35:43.563Z,4.73
2022-11-20T02:38:29.153Z,3.97
2022-11-20T02:41:14.284Z,3.23
2022-11-20T02:43:59.919Z,3.53
2022-11-20T02:46:45.459Z,3.20
2022-11-20T02:49:31.187Z,4.00
2022-11-20T02:52:16.544Z,4.57
2022-11-20T02:55:02.148Z,3.30
2022-11-20T02:57:47.684Z,6.73
2022-11-20T03:00:33.208Z,4.60
2022-11-20T03:03:18.540Z,6.43
2022-11-20T03:06:04.452Z,2.93
2022-11-20T03:08:49.764Z,5.40
2022-11-20T03:11:35.370Z,3.23
2022-11-20T03:14:20.977Z,4.60
2022-11-20T03:17:06.560Z,3.30
2022-11-20T03:19:52.113Z,2.53
2022-11-20T03:22:37.783Z,2.87
2022-11-20T03:25:23.491Z,3.10
2022-11-20T03:28:08.694Z,3.67
2022-11-20T03:30:54.181Z,3.83
2022-11-20T03:33:41.297Z,3.53
2022-11-20T03:36:27.652Z,4.10
2022-11-20T03:39:13.244Z,3.63
2022-11-20T03:41:58.730Z,5.40
2022-11-20T03:44:44.153Z,3.93
2022-11-20T03:47:29.728Z,5.17
2022-11-20T03:50:15.755Z,3.70
2022-11-20T03:53:01.375Z,4.80
2022-11-20T03:55:51.465Z,2.93
2022-11-20T03:58:38.316Z,3.13
2022-11-20T04:01:33.221Z,4.80
2022-11-20T04:04:18.999Z,5.27
2022-11-20T04:07:04.672Z,4.80
2022-11-20T04:09:49.936Z,4.13
2022-11-20T04:12:35.208Z,4.17
2022-11-20T04:15:20.858Z,3.27
2022-11-20T04:18:06.334Z,3.50
2022-11-20T04:20:51.845Z,4.30
2022-11-20T04:23:37.479Z,6.03
2022-11-20T04:26:25.096Z,4.37
2022-11-20T04:29:12.789Z,4.70
2022-11-20T04:31:58.306Z,3.50
2022-11-20T04:34:43.912Z,5.17
2022-11-20T04:37:29.453Z,3.77
2022-11-20T04:40:15.014Z,3.17
2022-11-20T04:43:00.568Z,2.80
2022-11-20T04:45:52.584Z,2.93
2022-11-20T04:48:38.028Z,2.87
2022-11-20T04:51:23.666Z,3.43
2022-11-20T04:54:10.156Z,3.70
2022-11-20T04:56:55.325Z,2.90
2022-11-20T04:59:40.851Z,4.07
2022-11-20T05:02:26.286Z,5.20
2022-11-20T05:05:11.889Z,5.83
2022-11-20T05:07:58.676Z,5.97
2022-11-20T05:10:44.156Z,4.63
2022-11-20T05:13:29.810Z,2.80
2022-11-20T05:16:18.655Z,3.57
2022-11-20T05:19:04.034Z,3.63
2022-11-20T05:21:49.579Z,4.87
2022-11-20T05:24:35.106Z,2.97
2022-11-20T05:27:20.786Z,3.77
2022-11-20T05:30:06.830Z,4.93
2022-11-20T05:32:52.050Z,4.47
2022-11-20T05:35:37.698Z,4.00
2022-11-20T05:38:23.120Z,3.07
2022-11-20T05:41:14.783Z,4.80
2022-11-20T05:44:00.552Z,3.30
2022-11-20T05:46:45.871Z,3.67
2022-11-20T05:49:31.495Z,5.23
2022-11-20T05:52:16.785Z,3.60
2022-11-20T05:55:02.616Z,4.13
2022-11-20T05:57:48.156Z,5.33
2022-11-20T06:00:33.731Z,3.10
2022-11-20T06:03:19.100Z,3.27
2022-11-20T06:06:06.422Z,2.87
2022-11-20T06:08:51.793Z,2.33
2022-11-20T06:11:37.289Z,4.70
2022-11-20T06:14:22.858Z,4.00
2022-11-20T06:17:08.165Z,3.10
2022-11-20T06:19:53.707Z,2.87
2022-11-20T06:22:39.633Z,4.50
2022-11-20T06:25:24.943Z,2.43
2022-11-20T06:28:10.762Z,3.13
2022-11-20T06:30:56.051Z,5.27
2022-11-20T06:33:42.466Z,3.57
2022-11-20T06:36:27.917Z,3.33
2022-11-20T06:39:13.203Z,4.27
2022-11-20T06:41:59.311Z,4.10
2022-11-20T06:44:44.976Z,2.90
2022-11-20T06:47:30.077Z,3.43
2022-11-20T06:50:15.609Z,3.33
2022-11-20T06:53:05.354Z,4.73
2022-11-20T06:55:53.554Z,3.47
2022-11-20T06:58:38.979Z,2.83
2022-11-20T07:01:24.419Z,4.07
2022-11-20T07:04:09.829Z,5.70
2022-11-20T07:06:55.066Z,4.13
2022-11-20T07:09:40.527Z,3.00
2022-11-20T07:12:26.073Z,4.13
2022-11-20T07:15:11.580Z,3.63
2022-11-20T07:18:00.253Z,4.50
2022-11-20T07:20:45.612Z,3.77
2022-11-20T07:23:31.113Z,4.13
2022-11-20T07:26:16.766Z,4.33
2022-11-20T07:29:02.134Z,6.00
2022-11-20T07:31:47.456Z,4.10
2022-11-20T07:34:33.091Z,3.90
2022-11-20T07:37:18.539Z,3.33
2022-11-20T07:40:04.666Z,4.53
2022-11-20T07:42:56.479Z,2.23
2022-11-20T07:45:42.091Z,4.77
2022-11-20T07:48:27.792Z,3.27
2022-11-20T07:51:14.441Z,3.67
2022-11-20T07:53:59.906Z,7.47
2022-11-20T07:56:45.338Z,3.97
2022-11-20T07:59:30.739Z,5.10
2022-11-20T08:02:16.329Z,3.43
2022-11-20T08:05:01.992Z,3.83
2022-11-20T08:07:47.565Z,3.47
2022-11-20T08:10:32.908Z,4.37
2022-11-20T08:13:36.917Z,2.87
2022-11-20T08:16:22.752Z,3.03
2022-11-20T08:19:08.628Z,2.77
2022-11-20T08:21:53.768Z,2.27
2022-11-20T08:24:39.351Z,3.10
2022-11-20T08:27:24.905Z,3.33
2022-11-20T08:30:11.092Z,3.07
2022-11-20T08:33:02.116Z,3.77
2022-11-20T08:35:47.525Z,2.20
2022-11-20T08:38:33.724Z,1.73
2022-11-20T08:41:26.783Z,1.88
2022-11-20T08:44:11.947Z,2.53
2022-11-20T08:46:58.013Z,3.73
2022-11-20T08:49:43.445Z,3.50
2022-11-20T08:52:29.074Z,2.80
2022-11-20T08:55:14.733Z,2.17
2022-11-20T08:58:04.795Z,3.47
2022-11-20T09:00:50.535Z,3.17
2022-11-20T09:03:36.189Z,3.63
2022-11-20T09:06:21.518Z,2.40
2022-11-20T09:09:07.240Z,2.30
2022-11-20T09:11:52.675Z,4.70
2022-11-20T09:14:38.139Z,1.67
2022-11-20T09:17:23.774Z,1.90
2022-11-20T09:20:09.431Z,3.33
2022-11-20T09:22:55.021Z,2.63
2022-11-20T09:25:40.451Z,4.15
2022-11-20T09:28:26.590Z,3.33
2022-11-20T09:31:24.039Z,2.30
2022-11-20T09:34:09.316Z,4.73
2022-11-20T09:36:55.128Z,3.00
2022-11-20T09:39:40.435Z,2.17
2022-11-20T09:42:48.630Z,2.53
2022-11-20T09:45:47.327Z,2.28
2022-11-20T09:48:35.800Z,2.20
2022-11-20T09:51:47.200Z,1.90
2022-11-20T09:54:36.680Z,2.13
2022-11-20T09:57:26.445Z,1.98
2022-11-20T10:00:15.293Z,2.17
2022-11-20T10:03:03.088Z,2.58
2022-11-20T10:05:56.101Z,2.35
2022-11-20T10:08:52.842Z,2.25
2022-11-20T10:11:57.239Z,3.28
2022-11-20T10:15:16.473Z,2.20
2022-11-20T10:18:26.570Z,2.30
2022-11-20T10:21:37.035Z,2.20
2022-11-20T10:24:33.661Z,2.53
2022-11-20T10:27:28.001Z,2.47
2022-11-20T10:30:21.033Z,2.30
2022-11-20T10:33:19.053Z,2.40
2022-11-20T10:36:40.061Z,2.13
2022-11-20T10:39:45.338Z,2.40
2022-11-20T10:42:43.688Z,2.95
2022-11-20T10:45:59.815Z,2.38
2022-11-20T10:48:46.904Z,1.98
2022-11-20T10:51:41.108Z,2.40
2022-11-20T10:54:57.586Z,1.50
2022-11-20T10:57:57.737Z,1.95
2022-11-20T11:00:43.278Z,1.92
2022-11-20T11:03:31.346Z,2.33
2022-11-20T11:06:35.481Z,2.50
2022-11-20T11:09:31.073Z,2.92
2022-11-20T11:12:16.715Z,1.38
2022-11-20T11:15:02.028Z,0.98
2022-11-20T11:17:48.764Z,0.90
2022-11-20T11:20:34.145Z,1.35
2022-11-20T11:23:33.641Z,2.17
2022-11-20T11:26:25.089Z,1.58
2022-11-20T11:29:18.907Z,1.33
2022-11-20T11:32:12.446Z,0.90
2022-11-20T11:35:04.398Z,0.98
2022-11-20T11:37:50.399Z,0.65
2022-11-20T11:40:37.208Z,0.75
2022-11-20T11:43:45.199Z,0.80
2022-11-20T11:46:36.135Z,1.45
2022-11-20T11:49:22.534Z,0.88
2022-11-20T11:52:22.239Z,0.43
2022-11-20T11:55:15.364Z,0.63
2022-11-20T11:58:16.763Z,1.75
2022-11-20T12:01:15.232Z,2.75
2022-11-20T12:04:20.562Z,0.70
2022-11-20T12:07:49.061Z,1.75
2022-11-20T12:10:50.074Z,1.27
2022-11-20T12:13:35.158Z,1.10
2022-11-20T12:16:21.911Z,0.90
2022-11-20T12:19:13.596Z,2.88
2022-11-20T12:22:21.665Z,1.10
2022-11-20T12:25:32.263Z,2.92
2022-11-20T12:28:44.432Z,2.35
2022-11-20T12:32:19.616Z,1.17
2022-11-20T12:35:27.736Z,1.20
2022-11-20T12:39:00.839Z,0.90
2022-11-20T12:42:37.298Z,0.70
2022-11-20T12:45:47.954Z,0.85
2022-11-20T12:48:59.637Z,1.10
2022-11-20T12:51:44.876Z,0.95
2022-11-20T12:55:01.069Z,0.77
2022-11-20T12:57:55.245Z,1.23
2022-11-20T13:00:55.757Z,0.70
2022-11-20T13:03:54.833Z,1.88
2022-11-20T13:06:42.634Z,0.68
2022-11-20T13:09:28.598Z,1.25
2022-11-20T13:12:27.821Z,0.73
2022-11-20T13:15:15.999Z,0.70
2022-11-20T13:18:03.636Z,1.10
2022-11-20T13:20:50.608Z,0.98
2022-11-20T13:23:36.002Z,1.52
2022-11-20T13:26:24.545Z,0.90
2022-11-20T13:29:17.101Z,1.30
2022-11-20T13:32:14.199Z,3.70
2022-11-20T13:35:05.388Z,2.10
2022-11-20T13:38:05.713Z,1.08
2022-11-20T13:40:57.672Z,2.25
2022-11-20T13:43:43.880Z,1.17
2022-11-20T13:46:45.408Z,4.47
2022-11-20T13:49:49.745Z,2.03
2022-11-20T13:53:07.459Z,2.60
2022-11-20T13:56:00.071Z,2.00
2022-11-20T13:58:55.761Z,2.45
2022-11-20T14:01:43.255Z,1.95
2022-11-20T14:04:34.108Z,2.08
2022-11-20T14:07:23.167Z,1.33
2022-11-20T14:10:22.725Z,1.85
2022-11-20T14:13:20.785Z,1.17
2022-11-20T14:16:06.463Z,1.35
2022-11-20T14:18:51.804Z,1.98
2022-11-20T14:21:37.131Z,1.60
2022-11-20T14:24:26.287Z,1.42
2022-11-20T14:27:18.608Z,2.00
2022-11-20T14:30:04.526Z,1.73
2022-11-20T14:32:51.874Z,1.30
2022-11-20T14:35:45.597Z,4.65
2022-11-20T14:38:33.466Z,7.75
2022-11-20T14:41:25.003Z,2.88
2022-11-20T14:44:11.408Z,2.00
2022-11-20T14:46:57.887Z,3.97
2022-11-20T14:49:43.892Z,1.95
2022-11-20T14:52:29.647Z,1.50
2022-11-20T14:55:25.563Z,1.63
2022-11-20T14:58:24.376Z,1.50
2022-11-20T15:01:14.424Z,1.60
2022-11-20T15:04:12.186Z,1.65
2022-11-20T15:07:00.436Z,2.58
2022-11-20T15:09:45.736Z,2.65
2022-11-20T15:12:38.579Z,1.30
2022-11-20T15:15:39.929Z,1.60
2022-11-20T15:18:31.491Z,1.67
2022-11-20T15:21:19.337Z,2.15
2022-11-20T15:24:10.238Z,2.80
2022-11-20T15:26:55.901Z,1.77
2022-11-20T15:29:42.604Z,3.20
2022-11-20T15:32:27.760Z,3.30
2022-11-20T15:35:14.717Z,1.55
2022-11-20T15:38:00.048Z,2.38
2022-11-20T15:40:45.683Z,2.55
2022-11-20T15:43:31.288Z,2.00
2022-11-20T15:46:22.648Z,2.20
2022-11-20T15:49:13.780Z,1.90
2022-11-20T15:51:58.985Z,4.90
2022-11-20T15:54:44.396Z,3.05
2022-11-20T15:57:30.160Z,2.70
2022-11-20T16:00:22.164Z,5.53
2022-11-20T16:03:12.215Z,2.42
2022-11-20T16:05:57.414Z,2.42
2022-11-20T16:08:43.149Z,3.08
2022-11-20T16:11:28.496Z,3.08
2022-11-20T16:14:32.641Z,2.83
2022-11-20T16:17:37.886Z,2.20
2022-11-20T16:20:23.306Z,3.65
2022-11-20T16:23:08.736Z,3.38
2022-11-20T16:25:54.141Z,5.35
2022-11-20T16:28:40.128Z,3.47
2022-11-20T16:31:25.828Z,3.25
2022-11-20T16:34:12.641Z,3.85
2022-11-20T16:37:08.791Z,3.05
2022-11-20T16:39:54.365Z,2.03
2022-11-20T16:42:39.818Z,3.63
2022-11-20T16:45:28.850Z,3.75
2022-11-20T16:48:17.456Z,3.30
2022-11-20T16:51:05.480Z,2.65
2022-11-20T16:53:51.025Z,4.00
2022-11-20T16:56:37.573Z,2.97
2022-11-20T16:59:23.231Z,3.35
2022-11-20T17:02:10.486Z,4.72
2022-11-20T17:04:55.793Z,2.70
2022-11-20T17:07:41.418Z,2.72
2022-11-20T17:10:27.193Z,2.42
2022-11-20T17:13:12.850Z,2.13
2022-11-20T17:16:03.244Z,3.00
2022-11-20T17:18:51.516Z,3.58
2022-11-20T17:21:37.574Z,2.78
2022-11-20T17:24:26.393Z,1.75
2022-11-20T17:27:14.355Z,3.15
2022-11-20T17:30:00.046Z,4.28
2022-11-20T17:32:47.084Z,2.95
2022-11-20T17:35:32.504Z,2.42
2022-11-20T17:38:17.953Z,2.30
2022-11-20T17:41:07.235Z,2.95
2022-11-20T17:43:58.219Z,2.88
2022-11-20T17:46:43.640Z,3.33
2022-11-20T17:49:29.308Z,4.40
2022-11-20T17:52:14.836Z,3.10
2022-11-20T17:55:00.353Z,3.22
2022-11-20T17:57:56.888Z,2.72
2022-11-20T18:00:42.342Z,4.03
2022-11-20T18:03:27.698Z,3.65
2022-11-20T18:06:16.357Z,6.30
2022-11-20T18:09:04.116Z,2.75
2022-11-20T18:11:49.764Z,3.80
2022-11-20T18:14:36.496Z,3.00
2022-11-20T18:17:22.281Z,2.95
2022-11-20T18:23:15.200Z,3.00
2022-11-20T18:26:00.943Z,2.47
2022-11-20T18:28:46.728Z,5.05
2022-11-20T18:31:32.221Z,2.90
2022-11-20T18:34:17.578Z,3.40
2022-11-20T18:37:03.340Z,3.22
2022-11-20T18:39:50.462Z,4.07
2022-11-20T18:42:55.973Z,2.50
2022-11-20T18:45:41.280Z,3.25
2022-11-20T18:48:26.839Z,3.05
2022-11-20T18:51:16.172Z,2.95
2022-11-20T18:54:01.902Z,3.63
2022-11-20T18:56:47.456Z,2.53
2022-11-20T18:59:33.009Z,3.47
2022-11-20T19:02:20.497Z,2.28
2022-11-20T19:05:06.049Z,3.57
2022-11-20T19:07:51.438Z,2.03
2022-11-20T19:10:37.581Z,4.07
2022-11-20T19:13:22.979Z,2.60
2022-11-20T19:16:17.877Z,2.23
2022-11-20T19:21:49.784Z,2.33
2022-11-20T19:24:35.133Z,3.20
2022-11-20T19:27:20.753Z,2.40
2022-11-20T19:30:06.724Z,2.23
2022-11-20T19:32:52.144Z,2.13
2022-11-20T19:35:37.773Z,2.47
2022-11-20T19:38:23.132Z,2.87
2022-11-20T19:41:09.628Z,5.17
2022-11-20T19:44:00.812Z,2.50
2022-11-20T19:46:46.478Z,2.77
2022-11-20T19:49:31.839Z,2.73
2022-11-20T19:52:17.135Z,2.63
2022-11-20T19:55:02.863Z,2.67
2022-11-20T19:57:48.211Z,2.77
2022-11-20T20:00:33.693Z,3.07
2022-11-20T20:03:19.292Z,3.17
2022-11-20T20:06:10.894Z,3.63
2022-11-20T20:09:01.506Z,4.53
2022-11-20T20:11:48.092Z,2.53
2022-11-20T20:14:34.812Z,3.10
2022-11-20T20:17:20.167Z,2.53
2022-11-20T20:20:06.377Z,2.47
2022-11-20T20:22:51.876Z,2.60
2022-11-20T20:25:40.295Z,2.37
2022-11-20T20:28:26.832Z,2.53
2022-11-20T20:31:15.974Z,3.03
2022-11-20T20:34:03.394Z,5.23
2022-11-20T20:36:48.946Z,2.57
2022-11-20T20:39:34.571Z,2.97
2022-11-20T20:42:20.100Z,3.03
2022-11-20T20:45:08.514Z,2.50
2022-11-20T20:47:55.871Z,2.43
2022-11-20T20:50:41.806Z,2.60
2022-11-20T20:53:27.740Z,2.20
2022-11-20T20:56:13.027Z,3.05
2022-11-20T20:58:58.605Z,2.30
2022-11-20T21:01:43.731Z,3.37
2022-11-20T21:04:29.328Z,1.77
2022-11-20T21:07:15.196Z,1.90
2022-11-20T21:10:00.754Z,1.93
2022-11-20T21:12:46.322Z,1.97
2022-11-20T21:15:32.022Z,3.00
2022-11-20T21:18:19.228Z,2.87
2022-11-20T21:21:30.191Z,2.73
2022-11-20T21:24:15.507Z,2.27
2022-11-20T21:27:03.243Z,1.47
2022-11-20T21:29:48.464Z,2.27
2022-11-20T21:32:34.099Z,2.37
2022-11-20T21:35:19.584Z,1.33
2022-11-20T21:38:05.252Z,2.27
2022-11-20T21:40:50.678Z,1.73
2022-11-20T21:43:36.812Z,2.53
2022-11-20T21:46:22.513Z,1.93
2022-11-20T21:49:08.351Z,2.43
2022-11-20T21:51:53.974Z,1.83
2022-11-20T21:54:39.530Z,2.50
2022-11-20T21:57:24.665Z,3.50
2022-11-20T22:00:11.628Z,5.87
2022-11-20T22:02:56.939Z,5.37
2022-11-20T22:05:42.460Z,3.23
2022-11-20T22:08:28.198Z,1.47
2022-11-20T22:11:15.972Z,2.33
2022-11-20T22:14:20.290Z,3.73
2022-11-20T22:17:05.988Z,2.10
2022-11-20T22:19:51.359Z,1.97
2022-11-20T22:22:36.952Z,2.03
2022-11-20T22:25:22.483Z,1.97
2022-11-20T22:28:07.975Z,3.90
2022-11-20T22:30:56.761Z,2.63
2022-11-20T22:33:42.232Z,2.10
2022-11-20T22:36:29.356Z,1.93
2022-11-20T22:39:14.730Z,3.03
2022-11-20T22:42:00.258Z,3.13
2022-11-20T22:44:45.668Z,1.97
2022-11-20T22:47:31.289Z,2.53
2022-11-20T22:50:16.715Z,1.70
2022-11-20T22:53:02.313Z,3.47
2022-11-20T22:55:49.655Z,2.40
2022-11-20T22:58:37.214Z,1.87
2022-11-20T23:01:30.566Z,1.40
2022-11-20T23:04:16.291Z,1.53
2022-11-20T23:07:01.939Z,1.90
2022-11-20T23:09:47.425Z,1.43
2022-11-20T23:12:32.972Z,1.10
2022-11-20T23:15:18.411Z,1.30
2022-11-20T23:18:04.164Z,1.97
2022-11-20T23:20:49.866Z,1.97
2022-11-20T23:23:35.217Z,1.43
2022-11-20T23:26:23.592Z,1.97
2022-11-20T23:29:09.135Z,2.33
2022-11-20T23:31:54.640Z,0.97
2022-11-20T23:34:40.497Z,1.43
2022-11-20T23:37:25.673Z,2.00
2022-11-20T23:40:11.584Z,1.10
2022-11-20T23:43:15.069Z,1.33
2022-11-20T23:46:01.556Z,1.43
2022-11-20T23:48:47.004Z,0.83
2022-11-20T23:51:32.550Z,1.47
2022-11-20T23:54:17.980Z,1.10
2022-11-20T23:57:03.761Z,1.07
2022-11-20T23:59:48.914Z,1.20
